createdAt,value
2018-04-29T00:00:50.589Z,13.94
2018-04-29T00:03:17.706Z,13.96
2018-04-29T00:05:45.048Z,14.01
2018-04-29T00:08:12.593Z,14.03
2018-04-29T00:10:39.742Z,14.11
2018-04-29T00:13:06.887Z,14.15
2018-04-29T00:15:34.423Z,14.15
2018-04-29T00:18:01.632Z,14.20
2018-04-29T00:20:29.202Z,14.15
2018-04-29T00:22:56.386Z,14.06
2018-04-29T00:25:23.755Z,13.99
2018-04-29T00:27:50.831Z,13.93
2018-04-29T00:30:18.257Z,13.86
2018-04-29T00:32:45.392Z,13.81
2018-04-29T00:35:12.479Z,13.78
2018-04-29T00:37:40.046Z,13.72
2018-04-29T00:40:13.282Z,13.71
2018-04-29T00:42:41.274Z,13.65
2018-04-29T00:45:08.524Z,13.59
2018-04-29T00:47:35.876Z,13.53
2018-04-29T00:50:02.967Z,13.47
2018-04-29T00:52:30.028Z,13.42
2018-04-29T00:54:57.174Z,13.33
2018-04-29T00:57:24.526Z,13.25
2018-04-29T00:59:51.761Z,13.18
2018-04-29T01:02:18.848Z,13.18
2018-04-29T01:04:45.938Z,13.15
2018-04-29T01:07:13.073Z,13.02
2018-04-29T01:09:40.159Z,13.00
2018-04-29T01:12:08.083Z,12.97
2018-04-29T01:14:35.188Z,12.95
2018-04-29T01:17:02.457Z,12.96
2018-04-29T01:19:29.566Z,12.84
2018-04-29T01:21:56.616Z,12.64
2018-04-29T01:24:23.685Z,12.74
2018-04-29T01:26:50.765Z,12.75
2018-04-29T01:29:18.847Z,12.67
2018-04-29T01:31:46.164Z,12.70
2018-04-29T01:34:13.919Z,12.82
2018-04-29T01:36:41.009Z,12.92
2018-04-29T01:39:08.131Z,13.06
2018-04-29T01:41:35.212Z,13.15
2018-04-29T01:44:03.113Z,13.22
2018-04-29T01:46:30.177Z,13.18
2018-04-29T01:48:58.386Z,13.19
2018-04-29T01:51:25.537Z,13.16
2018-04-29T01:53:52.697Z,13.18
2018-04-29T01:56:21.403Z,13.16
2018-04-29T01:58:49.009Z,13.12
2018-04-29T02:01:17.189Z,13.10
2018-04-29T02:03:44.497Z,13.08
2018-04-29T02:06:11.581Z,13.06
2018-04-29T02:08:38.679Z,13.02
2018-04-29T02:11:05.883Z,12.97
2018-04-29T02:13:32.949Z,12.88
2018-04-29T02:16:01.108Z,12.77
2018-04-29T02:18:28.764Z,12.64
2018-04-29T02:20:57.600Z,12.61
2018-04-29T02:23:25.742Z,12.59
2018-04-29T02:25:53.502Z,12.58
2018-04-29T02:28:21.105Z,12.48
2018-04-29T02:30:48.850Z,12.34
2018-04-29T02:33:16.346Z,12.23
2018-04-29T02:35:43.431Z,12.20
2018-04-29T02:38:10.483Z,12.18
2018-04-29T02:40:37.875Z,12.04
2018-04-29T02:43:05.178Z,12.01
2018-04-29T02:45:32.255Z,12.00
2018-04-29T02:47:59.368Z,11.91
2018-04-29T02:50:26.516Z,11.80
2018-04-29T02:52:53.613Z,11.74
2018-04-29T02:55:20.824Z,11.61
2018-04-29T02:57:47.898Z,11.61
2018-04-29T03:00:15.028Z,11.51
2018-04-29T03:02:42.135Z,11.37
2018-04-29T03:05:09.279Z,11.38
2018-04-29T03:07:37.723Z,11.22
2018-04-29T03:10:05.284Z,11.04
2018-04-29T03:12:32.920Z,11.02
2018-04-29T03:15:00.668Z,10.90
2018-04-29T03:17:28.792Z,10.91
2018-04-29T03:19:56.424Z,10.94
2018-04-29T03:22:24.684Z,10.78
2018-04-29T03:24:51.940Z,10.69
2018-04-29T03:27:19.508Z,10.69
2018-04-29T03:29:46.800Z,10.61
2018-04-29T03:32:14.107Z,10.52
2018-04-29T03:34:41.398Z,10.47
2018-04-29T03:37:08.473Z,10.31
2018-04-29T03:39:35.683Z,10.20
2018-04-29T03:42:03.388Z,10.03
2018-04-29T03:44:31.548Z,10.04
2018-04-29T03:46:59.169Z,9.98
2018-04-29T03:49:26.940Z,9.96
2018-04-29T03:51:54.645Z,9.81
2018-04-29T03:54:22.408Z,9.74
2018-04-29T03:56:50.058Z,9.66
2018-04-29T03:59:29.493Z,9.46
2018-04-29T04:02:09.124Z,9.32
2018-04-29T04:04:36.940Z,9.42
2018-04-29T04:07:04.564Z,9.47
2018-04-29T04:09:32.155Z,9.50
2018-04-29T04:11:59.975Z,9.61
2018-04-29T04:14:27.479Z,9.51
2018-04-29T04:16:55.423Z,9.35
2018-04-29T04:19:23.005Z,9.35
2018-04-29T04:21:50.724Z,9.42
2018-04-29T04:24:18.760Z,9.50
2018-04-29T04:26:46.385Z,9.53
2018-04-29T04:29:14.270Z,9.49
2018-04-29T04:31:42.041Z,9.32
2018-04-29T04:34:10.877Z,9.36
2018-04-29T04:36:38.590Z,9.52
2018-04-29T04:39:06.228Z,9.56
2018-04-29T04:41:33.799Z,9.42
2018-04-29T04:44:01.314Z,9.47
2018-04-29T04:46:29.158Z,9.53
2018-04-29T04:48:56.829Z,9.58
2018-04-29T04:51:24.593Z,9.65
2018-04-29T04:53:52.165Z,9.67
2018-04-29T04:56:19.724Z,9.76
2018-04-29T04:58:48.014Z,9.95
2018-04-29T05:01:15.618Z,9.75
2018-04-29T05:03:43.138Z,9.86
2018-04-29T05:06:10.833Z,10.00
2018-04-29T05:08:38.638Z,9.91
2018-04-29T05:11:06.324Z,10.19
2018-04-29T05:13:34.269Z,10.25
2018-04-29T05:16:01.954Z,10.47
2018-04-29T05:18:29.929Z,10.69
2018-04-29T05:20:57.505Z,10.84
2018-04-29T05:23:25.028Z,10.92
2018-04-29T05:25:54.943Z,11.00
2018-04-29T05:28:22.873Z,11.11
2018-04-29T05:30:51.180Z,11.28
2018-04-29T05:33:18.753Z,11.51
2018-04-29T05:35:46.313Z,11.54
2018-04-29T05:38:13.868Z,11.58
2018-04-29T05:40:41.410Z,11.63
2018-04-29T05:43:09.416Z,11.78
2018-04-29T05:45:37.044Z,11.71
2018-04-29T05:48:04.769Z,11.81
2018-04-29T05:50:32.399Z,12.20
2018-04-29T05:53:00.131Z,13.05
2018-04-29T05:55:28.318Z,13.80
2018-04-29T05:57:56.055Z,13.41
2018-04-29T06:00:24.041Z,13.36
2018-04-29T06:02:52.550Z,13.78
2018-04-29T06:05:20.830Z,14.23
2018-04-29T06:07:48.437Z,15.24
2018-04-29T06:10:16.156Z,15.37
2018-04-29T06:12:43.867Z,16.22
2018-04-29T06:15:11.572Z,17.01
2018-04-29T06:17:39.192Z,17.98
2018-04-29T06:20:06.852Z,17.63
2018-04-29T06:22:34.775Z,17.17
2018-04-29T06:25:02.436Z,16.50
2018-04-29T06:27:30.236Z,16.71
2018-04-29T06:29:57.826Z,17.14
2018-04-29T06:32:25.445Z,16.45
2018-04-29T06:34:53.085Z,15.72
2018-04-29T06:37:20.800Z,15.56
2018-04-29T06:39:48.496Z,15.54
2018-04-29T06:42:16.065Z,15.45
2018-04-29T06:44:43.880Z,14.97
2018-04-29T06:47:12.276Z,14.54
2018-04-29T06:49:39.898Z,15.03
2018-04-29T06:52:07.694Z,15.51
2018-04-29T06:54:35.210Z,15.55
2018-04-29T06:57:03.234Z,15.75
2018-04-29T06:59:30.775Z,15.57
2018-04-29T07:01:58.306Z,15.69
2018-04-29T07:04:25.946Z,15.66
2018-04-29T07:06:53.752Z,15.99
2018-04-29T07:09:21.283Z,17.35
2018-04-29T07:11:48.943Z,18.15
2018-04-29T07:14:16.581Z,19.48
2018-04-29T07:16:44.356Z,22.05
2018-04-29T07:19:12.076Z,23.84
2018-04-29T07:21:39.601Z,25.64
2018-04-29T07:24:07.192Z,26.66
2018-04-29T07:26:34.866Z,27.88
2018-04-29T07:29:02.563Z,28.28
2018-04-29T07:31:30.181Z,28.89
2018-04-29T07:33:58.132Z,29.39
2018-04-29T07:36:25.933Z,29.67
2018-04-29T07:38:53.506Z,29.81
2018-04-29T07:41:21.928Z,29.39
2018-04-29T07:43:49.707Z,29.00
2018-04-29T07:46:17.332Z,29.43
2018-04-29T07:48:44.938Z,29.44
2018-04-29T07:51:12.672Z,29.27
2018-04-29T07:53:40.504Z,29.73
2018-04-29T07:56:08.207Z,30.20
2018-04-29T07:58:35.865Z,30.58
2018-04-29T08:01:03.883Z,31.45
2018-04-29T08:03:31.521Z,31.82
2018-04-29T08:05:59.166Z,31.25
2018-04-29T08:08:26.779Z,32.35
2018-04-29T08:10:54.343Z,32.57
2018-04-29T08:13:21.896Z,33.67
2018-04-29T08:15:49.507Z,34.01
2018-04-29T08:18:17.132Z,33.55
2018-04-29T08:20:44.708Z,32.51
2018-04-29T08:23:12.382Z,33.92
2018-04-29T08:25:40.057Z,32.84
2018-04-29T08:28:07.617Z,32.04
2018-04-29T08:30:35.239Z,32.05
2018-04-29T08:33:02.857Z,32.01
2018-04-29T08:35:31.372Z,32.37
2018-04-29T08:37:58.902Z,32.48
2018-04-29T08:40:26.595Z,33.98
2018-04-29T08:42:54.127Z,33.40
2018-04-29T08:45:21.874Z,33.17
2018-04-29T08:47:49.398Z,32.70
2018-04-29T08:50:17.205Z,33.30
2018-04-29T08:52:44.779Z,34.93
2018-04-29T08:55:12.477Z,35.74
2018-04-29T08:57:40.027Z,34.62
2018-04-29T09:00:07.793Z,34.80
2018-04-29T09:02:35.654Z,34.85
2018-04-29T09:05:03.310Z,34.83
2018-04-29T09:07:31.073Z,34.90
2018-04-29T09:09:58.793Z,35.43
2018-04-29T09:12:27.467Z,35.65
2018-04-29T09:14:55.032Z,35.70
2018-04-29T09:17:23.023Z,35.78
2018-04-29T09:19:50.778Z,35.74
2018-04-29T09:22:18.468Z,35.36
2018-04-29T09:24:46.021Z,35.86
2018-04-29T09:27:13.588Z,35.28
2018-04-29T09:29:41.118Z,35.64
2018-04-29T09:32:08.877Z,35.79
2018-04-29T09:34:36.611Z,36.07
2018-04-29T09:37:04.276Z,36.60
2018-04-29T09:39:32.069Z,37.44
2018-04-29T09:41:59.882Z,37.50
2018-04-29T09:44:27.683Z,37.27
2018-04-29T09:46:55.307Z,37.28
2018-04-29T09:49:22.863Z,37.83
2018-04-29T09:51:50.552Z,37.82
2018-04-29T09:54:18.103Z,38.15
2018-04-29T09:56:45.686Z,40.07
2018-04-29T09:59:13.364Z,40.38
2018-04-29T10:01:41.229Z,39.57
2018-04-29T10:04:09.411Z,39.83
2018-04-29T10:06:37.097Z,38.02
2018-04-29T10:09:04.702Z,39.94
2018-04-29T10:11:32.637Z,41.37
2018-04-29T10:14:00.252Z,41.24
2018-04-29T10:16:27.996Z,42.30
2018-04-29T10:18:55.675Z,41.68
2018-04-29T10:21:23.226Z,40.50
2018-04-29T10:23:50.855Z,40.86
2018-04-29T10:26:18.560Z,40.92
2018-04-29T10:28:46.337Z,41.25
2018-04-29T10:31:15.023Z,39.18
2018-04-29T10:33:42.775Z,39.05
2018-04-29T10:36:10.593Z,39.87
2018-04-29T10:38:38.149Z,41.33
2018-04-29T10:41:05.798Z,41.24
2018-04-29T10:43:33.348Z,42.43
2018-04-29T10:46:00.938Z,40.39
2018-04-29T10:48:28.687Z,37.37
2018-04-29T10:50:56.453Z,35.86
2018-04-29T10:53:24.083Z,34.08
2018-04-29T10:55:51.629Z,32.88
2018-04-29T10:58:19.179Z,32.38
2018-04-29T11:00:47.572Z,32.31
2018-04-29T11:03:15.290Z,31.87
2018-04-29T11:05:42.938Z,31.87
2018-04-29T11:08:10.562Z,31.83
2018-04-29T11:10:38.108Z,31.43
2018-04-29T11:13:05.772Z,31.07
2018-04-29T11:15:33.478Z,31.08
2018-04-29T11:18:01.310Z,30.74
2018-04-29T11:20:29.038Z,30.98
2018-04-29T11:22:56.652Z,31.68
2018-04-29T11:25:24.354Z,31.44
2018-04-29T11:27:52.063Z,31.56
2018-04-29T11:30:19.668Z,31.36
2018-04-29T11:32:47.190Z,30.68
2018-04-29T11:35:15.645Z,30.41
2018-04-29T11:37:43.369Z,30.49
2018-04-29T11:40:11.089Z,31.11
2018-04-29T11:42:38.850Z,31.36
2018-04-29T11:45:07.513Z,30.84
2018-04-29T11:47:35.762Z,30.85
2018-04-29T11:50:03.437Z,30.11
2018-04-29T11:52:31.024Z,29.83
2018-04-29T11:54:58.692Z,29.65
2018-04-29T11:57:26.494Z,30.21
2018-04-29T11:59:54.258Z,30.59
2018-04-29T12:02:22.030Z,30.60
2018-04-29T12:04:49.599Z,30.68
2018-04-29T12:07:17.167Z,30.15
2018-04-29T12:09:44.702Z,29.65
2018-04-29T12:12:12.310Z,30.21
2018-04-29T12:14:40.004Z,30.47
2018-04-29T12:17:07.687Z,30.75
2018-04-29T12:19:35.291Z,30.52
2018-04-29T12:22:02.974Z,30.58
2018-04-29T12:24:30.797Z,30.36
2018-04-29T12:26:58.430Z,30.60
2018-04-29T12:29:26.064Z,30.63
2018-04-29T12:31:53.583Z,30.60
2018-04-29T12:34:21.128Z,30.15
2018-04-29T12:36:48.838Z,29.96
2018-04-29T12:39:16.497Z,30.00
2018-04-29T12:41:44.038Z,30.22
2018-04-29T12:44:11.880Z,30.24
2018-04-29T12:46:39.522Z,30.16
2018-04-29T12:49:07.168Z,30.09
2018-04-29T12:51:34.698Z,30.26
2018-04-29T12:54:02.399Z,30.44
2018-04-29T12:56:30.725Z,29.93
2018-04-29T12:58:58.345Z,30.72
2018-04-29T13:01:27.188Z,30.61
2018-04-29T13:03:54.853Z,30.05
2018-04-29T13:06:22.425Z,29.40
2018-04-29T13:08:50.525Z,29.02
2018-04-29T13:11:18.123Z,28.83
2018-04-29T13:13:45.809Z,28.61
2018-04-29T13:16:13.341Z,28.55
2018-04-29T13:18:40.968Z,28.64
2018-04-29T13:21:09.607Z,28.72
2018-04-29T13:23:37.122Z,28.85
2018-04-29T13:26:05.459Z,28.91
2018-04-29T13:28:33.097Z,28.76
2018-04-29T13:31:00.708Z,28.61
2018-04-29T13:33:29.159Z,28.81
2018-04-29T13:35:56.743Z,29.20
2018-04-29T13:38:24.302Z,29.22
2018-04-29T13:40:52.104Z,29.06
2018-04-29T13:43:19.623Z,28.89
2018-04-29T13:45:47.149Z,28.64
2018-04-29T13:48:14.758Z,28.71
2018-04-29T13:50:42.357Z,28.80
2018-04-29T13:53:09.901Z,28.67
2018-04-29T13:55:37.572Z,28.71
2018-04-29T13:58:05.337Z,28.43
2018-04-29T14:00:32.887Z,28.37
2018-04-29T14:03:00.426Z,28.41
2018-04-29T14:05:28.184Z,28.34
2018-04-29T14:07:55.759Z,28.32
2018-04-29T14:10:23.450Z,28.45
2018-04-29T14:12:51.010Z,28.44
2018-04-29T14:15:18.817Z,28.47
2018-04-29T14:17:46.363Z,28.52
2018-04-29T14:20:14.155Z,28.56
2018-04-29T14:22:41.807Z,28.55
2018-04-29T14:25:09.448Z,28.52
2018-04-29T14:27:36.971Z,28.50
2018-04-29T14:30:04.564Z,28.50
2018-04-29T14:32:32.248Z,28.42
2018-04-29T14:34:59.977Z,28.65
2018-04-29T14:37:27.507Z,28.79
2018-04-29T14:39:55.323Z,28.79
2018-04-29T14:42:25.147Z,28.66
2018-04-29T14:44:52.713Z,28.86
2018-04-29T14:47:20.492Z,28.87
2018-04-29T14:49:48.933Z,28.84
2018-04-29T14:52:16.513Z,28.67
2018-04-29T14:54:44.287Z,28.64
2018-04-29T14:57:11.872Z,28.17
2018-04-29T14:59:39.421Z,27.87
2018-04-29T15:02:07.100Z,27.94
2018-04-29T15:04:34.634Z,27.90
2018-04-29T15:07:02.844Z,27.73
2018-04-29T15:09:30.879Z,27.59
2018-04-29T15:11:58.412Z,27.53
2018-04-29T15:14:27.803Z,27.42
2018-04-29T15:16:55.698Z,27.32
2018-04-29T15:19:23.297Z,27.31
2018-04-29T15:21:50.882Z,27.20
2018-04-29T15:24:18.455Z,26.97
2018-04-29T15:26:45.998Z,26.83
2018-04-29T15:29:13.606Z,26.76
2018-04-29T15:31:41.337Z,26.78
2018-04-29T15:34:08.890Z,26.92
2018-04-29T15:36:36.429Z,27.00
2018-04-29T15:39:04.364Z,27.04
2018-04-29T15:41:31.900Z,27.04
2018-04-29T15:43:59.433Z,27.11
2018-04-29T15:46:27.174Z,27.06
2018-04-29T15:48:54.670Z,26.99
2018-04-29T15:51:22.205Z,26.95
2018-04-29T15:53:49.734Z,26.92
2018-04-29T15:56:18.065Z,26.80
2018-04-29T15:58:45.608Z,26.70
2018-04-29T16:01:13.127Z,26.59
2018-04-29T16:03:40.761Z,26.49
2018-04-29T16:06:08.419Z,26.46
2018-04-29T16:08:36.018Z,26.52
2018-04-29T16:11:03.607Z,26.56
2018-04-29T16:13:31.383Z,26.50
2018-04-29T16:15:58.977Z,26.42
2018-04-29T16:18:26.514Z,26.40
2018-04-29T16:20:54.071Z,26.37
2018-04-29T16:23:21.736Z,26.36
2018-04-29T16:25:49.314Z,26.34
2018-04-29T16:28:17.074Z,26.33
2018-04-29T16:30:44.659Z,26.35
2018-04-29T16:33:12.727Z,26.33
2018-04-29T16:35:40.283Z,26.30
2018-04-29T16:38:07.982Z,26.30
2018-04-29T16:40:35.694Z,26.25
2018-04-29T16:43:03.232Z,26.19
2018-04-29T16:45:30.912Z,26.16
2018-04-29T16:47:58.722Z,26.12
2018-04-29T16:50:26.279Z,26.13
2018-04-29T16:52:55.019Z,26.04
2018-04-29T16:55:22.697Z,26.04
2018-04-29T16:57:50.864Z,25.99
2018-04-29T17:00:18.360Z,25.95
2018-04-29T17:02:45.919Z,25.88
2018-04-29T17:05:13.477Z,25.79
2018-04-29T17:07:41.397Z,25.74
2018-04-29T17:10:08.975Z,25.62
2018-04-29T17:12:36.612Z,25.57
2018-04-29T17:15:04.352Z,25.48
2018-04-29T17:17:31.912Z,25.38
2018-04-29T17:19:59.550Z,25.34
2018-04-29T17:22:27.083Z,25.27
2018-04-29T17:24:54.641Z,25.18
2018-04-29T17:27:22.248Z,25.10
2018-04-29T17:29:49.800Z,25.03
2018-04-29T17:32:17.520Z,24.99
2018-04-29T17:34:45.207Z,24.93
2018-04-29T17:37:12.837Z,24.90
2018-04-29T17:39:40.797Z,24.84
2018-04-29T17:42:08.564Z,24.74
2018-04-29T17:44:36.327Z,24.66
2018-04-29T17:47:03.918Z,24.64
2018-04-29T17:49:31.545Z,24.54
2018-04-29T17:51:59.080Z,24.40
2018-04-29T17:54:26.724Z,24.29
2018-04-29T17:56:54.394Z,24.18
2018-04-29T17:59:22.048Z,24.08
2018-04-29T18:01:49.709Z,23.97
2018-04-29T18:04:17.318Z,23.87
2018-04-29T18:06:45.157Z,23.82
2018-04-29T18:09:13.148Z,23.67
2018-04-29T18:11:40.702Z,23.59
2018-04-29T18:14:08.293Z,23.51
2018-04-29T18:16:35.829Z,23.34
2018-04-29T18:19:03.408Z,23.25
2018-04-29T18:21:31.053Z,23.11
2018-04-29T18:23:58.658Z,23.08
2018-04-29T18:26:26.209Z,23.02
2018-04-29T18:28:53.829Z,22.84
2018-04-29T18:31:21.430Z,22.80
2018-04-29T18:33:48.992Z,22.71
2018-04-29T18:36:16.828Z,22.61
2018-04-29T18:38:44.458Z,22.52
2018-04-29T18:41:12.203Z,22.51
2018-04-29T18:43:39.908Z,22.60
2018-04-29T18:46:07.554Z,22.52
2018-04-29T18:48:35.285Z,22.41
2018-04-29T18:51:02.831Z,22.34
2018-04-29T18:53:30.455Z,22.19
2018-04-29T18:55:58.080Z,21.93
2018-04-29T18:58:25.778Z,21.79
2018-04-29T19:00:53.710Z,21.62
2018-04-29T19:03:21.280Z,21.43
2018-04-29T19:05:49.018Z,21.25
2018-04-29T19:08:16.557Z,20.99
2018-04-29T19:10:44.147Z,20.98
2018-04-29T19:13:11.753Z,20.78
2018-04-29T19:15:39.378Z,20.51
2018-04-29T19:18:07.062Z,20.42
2018-04-29T19:20:34.670Z,20.14
2018-04-29T19:23:02.290Z,19.71
2018-04-29T19:25:29.844Z,19.66
2018-04-29T19:27:57.430Z,19.39
2018-04-29T19:30:25.388Z,19.11
2018-04-29T19:32:53.133Z,19.12
2018-04-29T19:35:20.664Z,19.08
2018-04-29T19:37:48.310Z,19.07
2018-04-29T19:40:15.980Z,19.10
2018-04-29T19:42:43.756Z,18.98
2018-04-29T19:45:11.411Z,18.98
2018-04-29T19:47:38.953Z,18.52
2018-04-29T19:50:06.555Z,18.17
2018-04-29T19:52:34.265Z,18.27
2018-04-29T19:55:02.081Z,18.18
2018-04-29T19:57:29.755Z,17.57
2018-04-29T19:59:57.441Z,17.68
2018-04-29T20:02:24.995Z,17.57
2018-04-29T20:04:53.384Z,17.81
2018-04-29T20:07:21.047Z,17.72
2018-04-29T20:09:48.590Z,17.45
2018-04-29T20:12:16.306Z,17.54
2018-04-29T20:14:44.279Z,17.07
2018-04-29T20:17:11.966Z,17.10
2018-04-29T20:19:39.604Z,17.23
2018-04-29T20:22:07.179Z,17.22
2018-04-29T20:24:34.964Z,17.24
2018-04-29T20:27:02.591Z,16.73
2018-04-29T20:29:31.257Z,16.80
2018-04-29T20:31:58.775Z,16.96
2018-04-29T20:34:26.398Z,16.82
2018-04-29T20:36:53.969Z,16.69
2018-04-29T20:39:21.899Z,16.60
2018-04-29T20:41:50.128Z,16.67
2018-04-29T20:44:17.900Z,16.59
2018-04-29T20:46:46.789Z,16.32
2018-04-29T20:49:14.374Z,16.17
2018-04-29T20:51:41.921Z,16.15
2018-04-29T20:54:09.489Z,16.16
2018-04-29T20:56:37.141Z,16.16
2018-04-29T20:59:04.226Z,16.17
2018-04-29T21:01:31.365Z,16.07
2018-04-29T21:03:58.508Z,15.81
2018-04-29T21:06:25.718Z,15.82
2018-04-29T21:08:52.789Z,15.96
2018-04-29T21:11:19.881Z,16.03
2018-04-29T21:13:47.026Z,15.95
2018-04-29T21:16:14.195Z,15.91
2018-04-29T21:18:41.392Z,15.94
2018-04-29T21:21:08.454Z,15.81
2018-04-29T21:23:35.543Z,15.50
2018-04-29T21:26:02.890Z,15.52
2018-04-29T21:28:30.049Z,15.64
2018-04-29T21:30:57.246Z,15.67
2018-04-29T21:33:24.490Z,15.57
2018-04-29T21:35:51.622Z,15.47
2018-04-29T21:38:19.173Z,15.32
2018-04-29T21:40:46.316Z,15.49
2018-04-29T21:43:13.415Z,15.47
2018-04-29T21:45:40.769Z,15.21
2018-04-29T21:48:07.864Z,15.26
2018-04-29T21:50:35.042Z,15.15
2018-04-29T21:53:02.107Z,15.21
2018-04-29T21:55:29.219Z,15.03
2018-04-29T21:57:56.288Z,15.24
2018-04-29T22:00:23.455Z,15.15
2018-04-29T22:02:50.525Z,15.18
2018-04-29T22:05:18.379Z,14.96
2018-04-29T22:07:45.606Z,14.94
2018-04-29T22:10:12.706Z,15.08
2018-04-29T22:12:39.807Z,15.16
2018-04-29T22:15:07.041Z,15.19
2018-04-29T22:17:34.829Z,15.10
2018-04-29T22:20:01.916Z,15.11
2018-04-29T22:22:29.084Z,15.22
2018-04-29T22:24:56.230Z,15.30
2018-04-29T22:27:23.351Z,15.20
2018-04-29T22:29:50.461Z,15.18
2018-04-29T22:32:17.542Z,15.24
2018-04-29T22:34:44.640Z,15.26
2018-04-29T22:37:11.937Z,15.19
2018-04-29T22:39:39.007Z,15.07
2018-04-29T22:42:06.186Z,15.09
2018-04-29T22:44:33.321Z,15.05
2018-04-29T22:47:00.410Z,15.05
2018-04-29T22:49:28.059Z,15.01
2018-04-29T22:51:55.262Z,14.97
2018-04-29T22:54:22.361Z,14.85
2018-04-29T22:56:49.451Z,14.79
2018-04-29T22:59:16.530Z,14.91
2018-04-29T23:01:43.621Z,14.96
2018-04-29T23:04:10.701Z,14.97
2018-04-29T23:06:37.915Z,15.05
2018-04-29T23:09:05.161Z,15.03
2018-04-29T23:11:32.477Z,14.97
2018-04-29T23:13:59.622Z,14.93
2018-04-29T23:16:26.691Z,14.93
2018-04-29T23:18:53.810Z,14.89
2018-04-29T23:21:20.920Z,14.87
2018-04-29T23:23:48.025Z,14.71
2018-04-29T23:26:15.215Z,14.57
2018-04-29T23:28:42.323Z,14.54
2018-04-29T23:31:09.435Z,14.55
2018-04-29T23:33:37.006Z,14.60
2018-04-29T23:36:04.329Z,14.59
2018-04-29T23:38:31.391Z,14.49
2018-04-29T23:40:58.514Z,14.37
2018-04-29T23:43:25.609Z,14.33
2018-04-29T23:45:53.338Z,14.37
2018-04-29T23:48:20.462Z,14.43
2018-04-29T23:50:47.691Z,14.65
2018-04-29T23:53:14.741Z,14.76
2018-04-29T23:55:42.512Z,14.99
2018-04-29T23:58:09.599Z,15.11
